FW2894 Weather Reports


time (UTC)temp
C
wind
direction
speed
KPH
gust
KPH
rain 1hr
cm
rain 24hr
cm
rain mn
cm
humidity
%
barometer
mb
20210927061325 13 336 0.0 0.0 0.00 0.00 0.00 61 1007.3
20210927054341 13 337 0.0 0.0 0.00 0.00 0.00 60 1007.3
20210927052826 14 338 0.0 0.0 0.00 0.00 0.00 58 1007.3
20210927045847 17 338 0.0 4.8 0.00 0.00 0.00 50 1007.4
20210927042837 16 184 0.0 0.0 0.00 0.00 0.00 52 1006.8
20210927035827 16 204 0.0 0.0 0.00 0.00 0.00 56 1006.8
20210927032831 15 204 0.0 0.0 0.00 0.00 0.00 60 1006.6
20210927031327 15 204 0.0 0.0 0.00 0.00 0.00 60 1006.4
20210927025820 15 204 0.0 3.2 0.00 0.00 0.00 61 1006.6
20210927022848 15 204 0.0 0.0 0.00 0.00 0.00 58 1006.4
20210927015834 16 204 0.0 0.0 0.00 0.00 0.00 58 1006.2
20210927014327 17 204 0.0 0.0 0.00 0.00 0.00 57 1006.1
20210927012829 18 204 0.0 0.0 0.00 0.00 0.00 55 1005.9
20210927005832 20 204 0.0 0.0 0.00 0.00 0.00 48 1005.9
20210927004328 22 204 0.0 0.0 0.00 0.00 0.00 44 1005.7
20210927002819 25 204 0.0 0.0 0.00 0.00 0.00 40 1005.9
20210927001318 27 204 0.0 0.0 0.00 0.00 0.00 35 1006.1
20210926234329 30 204 1.6 4.8 0.00 0.00 0.00 24 1006.0
20210926232822 31 214 3.2 9.7 0.00 0.00 0.00 22 1006.2
20210926225831 32 215 4.8 14.5 0.00 0.00 0.00 20 1006.4
20210926222826 32 220 9.7 20.9 0.00 0.00 0.00 17 1006.5
20210926215832 33 205 9.7 25.7 0.00 0.00 0.00 14 1006.2
20210926214330 33 194 8.0 20.9 0.00 0.00 0.00 13 1006.2
20210926212822 33 225 11.3 27.4 0.00 0.00 0.00 13 1006.3
20210926205830 33 203 9.7 27.4 0.00 0.00 0.00 16 1006.8
20210926204336 32 176 9.7 25.7 0.00 0.00 0.00 17 1007.0
20210926202825 32 228 8.0 19.3 0.00 0.00 0.00 20 1007.2
20210926195834 32 144 9.7 22.5 0.00 0.00 0.00 19 1007.7
20210926194328 32 177 9.7 19.3 0.00 0.00 0.00 21 1007.7
20210926192820 32 206 9.7 20.9 0.00 0.00 0.00 21 1007.9
20210926191315 31 222 8.0 24.1 0.00 0.00 0.00 22 1008.1
20210926184351 31 231 8.0 19.3 0.00 0.00 0.00 24 1008.8
20210926182842 30 181 6.4 16.1 0.00 0.00 0.00 23 1008.7
20210926175850 29 161 4.8 11.3 0.00 0.00 0.00 26 1008.8
20210926174345 28 167 4.8 11.3 0.00 0.00 0.00 26 1009.0
20210926171351 27 282 3.2 6.4 0.00 0.00 0.00 29 1009.3
20210926165844 26 219 3.2 8.0 0.00 0.00 0.00 31 1009.4
20210926164343 25 165 6.4 12.9 0.00 0.00 0.00 33 1009.3
20210926161348 23 200 4.8 11.3 0.00 0.00 0.00 35 1009.6
20210926155845 22 230 3.2 9.7 0.00 0.00 0.00 37 1009.5
20210926154343 21 234 3.2 8.0 0.00 0.00 0.00 39 1009.5
20210926151354 20 215 3.2 11.3 0.00 0.00 0.00 42 1009.6
20210926145850 18 226 3.2 8.0 0.00 0.00 0.00 45 1009.4
20210926144341 17 249 4.8 9.7 0.00 0.00 0.00 46 1009.6
20210926142834 16 236 6.4 11.3 0.00 0.00 0.00 49 1009.5
20210926135848 13 225 3.2 8.0 0.00 0.00 0.00 53 1009.3
20210926134346 12 208 3.2 6.4 0.00 0.00 0.00 54 1009.3
20210926131356 10 181 0.0 0.0 0.00 0.00 0.00 58 1009.3
20210926125848 8 181 0.0 0.0 0.00 0.00 0.00 59 1009.3
20210926124340 8 181 0.0 1.6 0.00 0.00 0.00 60 1009.3
20210926121346 8 181 0.0 0.0 0.00 0.00 0.00 63 1009.4
20210926115844 8 181 0.0 3.2 0.00 0.00 0.00 62 1009.5
20210926114339 9 181 1.6 4.8 0.00 0.00 0.00 62 1009.6
20210926111352 10 181 0.0 0.0 0.00 0.00 0.00 60 1009.4
20210926105846 10 159 1.6 8.0 0.00 0.00 0.00 61 1009.5
20210926104342 10 172 0.0 3.2 0.00 0.00 0.00 61 1009.7
20210926101346 12 172 0.0 0.0 0.00 0.00 0.00 55 1010.1
20210926094341 12 178 4.8 8.0 0.00 0.00 0.00 54 1010.2
20210926092831 12 183 3.2 6.4 0.00 0.00 0.00 54 1010.4
20210926085930 13 166 0.0 4.8 0.00 0.00 0.00 52 1010.8
20210926084346 13 192 3.2 9.7 0.00 0.00 0.00 52 1010.9
20210926081335 13 180 3.2 6.4 0.00 0.00 0.00 53 1011.3
20210926074348 13 187 1.6 8.0 0.00 0.00 0.00 50 1011.8
20210926072840 14 174 4.8 9.7 0.00 0.00 0.00 49 1012.0
20210926071335 14 156 4.8 9.7 0.00 0.00 0.00 49 1012.2
20210926065835 14 198 4.8 9.7 0.00 0.00 0.00 49 1012.2
20210926062849 15 197 8.0 16.1 0.00 0.00 0.00 46 1012.6